createdAt,value
2023-05-05T00:04:10.222Z,19.8
2023-05-05T00:10:01.495Z,19.8
2023-05-05T00:15:53.575Z,19.8
2023-05-05T00:21:46.283Z,19.8
2023-05-05T00:27:38.920Z,19.8
2023-05-05T00:33:32.928Z,19.8
2023-05-05T00:39:24.501Z,19.8
2023-05-05T00:45:15.595Z,19.8
2023-05-05T00:51:08.189Z,19.8
2023-05-05T00:57:00.041Z,19.8
2023-05-05T01:02:51.222Z,19.8
2023-05-05T01:08:43.455Z,19.8
2023-05-05T01:14:50.286Z,19.8
2023-05-05T01:20:41.831Z,19.8
2023-05-05T01:26:33.251Z,19.8
2023-05-05T01:32:25.133Z,19.8
2023-05-05T01:38:15.968Z,19.8
2023-05-05T01:43:52.530Z,19.8
2023-05-05T01:49:44.793Z,19.8
2023-05-05T01:55:20.442Z,19.8
2023-05-05T02:01:12.112Z,19.8
2023-05-05T02:07:04.777Z,19.8
2023-05-05T02:12:56.281Z,19.8
2023-05-05T02:18:48.744Z,19.8
2023-05-05T02:24:40.629Z,19.8
2023-05-05T02:30:31.693Z,19.8
2023-05-05T02:36:23.725Z,19.9
2023-05-05T02:42:15.269Z,19.9
2023-05-05T02:48:06.366Z,20
2023-05-05T02:53:42.611Z,20
2023-05-05T02:59:18.578Z,20
2023-05-05T03:05:11.044Z,19.9
2023-05-05T03:11:02.808Z,19.9
2023-05-05T03:16:39.298Z,19.9
2023-05-05T03:22:32.248Z,19.9
2023-05-05T03:28:24.763Z,19.9
2023-05-05T03:34:17.394Z,19.9
2023-05-05T03:40:09.239Z,19.9
2023-05-05T03:46:00.867Z,19.9
2023-05-05T03:51:37.630Z,19.9
2023-05-05T03:57:13.276Z,19.9
2023-05-05T04:03:07.499Z,19.9
2023-05-05T04:08:59.190Z,19.9
2023-05-05T04:14:50.155Z,19.9
2023-05-05T04:20:41.664Z,19.9
2023-05-05T04:26:33.308Z,19.9
2023-05-05T04:32:08.990Z,19.9
2023-05-05T04:37:14.343Z,19.8
2023-05-05T04:42:36.535Z,19.9
2023-05-05T04:47:57.470Z,19.8
2023-05-05T04:53:33.907Z,19.8
2023-05-05T04:59:10.385Z,19.8
2023-05-05T05:04:47.192Z,19.9
2023-05-05T05:10:07.791Z,19.9
2023-05-05T05:15:13.705Z,19.9
2023-05-05T05:21:05.804Z,19.9
2023-05-05T05:26:26.116Z,19.9
2023-05-05T05:32:16.915Z,19.9
2023-05-05T05:38:08.004Z,19.9
2023-05-05T05:43:28.346Z,19.9
2023-05-05T05:49:20.394Z,19.9
2023-05-05T05:54:41.761Z,19.9
2023-05-05T06:00:18.685Z,19.9
2023-05-05T06:05:56.146Z,19.9
2023-05-05T06:11:47.902Z,19.9
2023-05-05T06:17:26.483Z,19.9
2023-05-05T06:23:03.135Z,19.9
2023-05-05T06:28:23.941Z,19.9
2023-05-05T06:33:44.608Z,19.9
2023-05-05T06:39:06.027Z,20.1
2023-05-05T06:44:26.998Z,22.8
2023-05-05T06:49:47.906Z,23.6
2023-05-05T06:54:53.871Z,24.3
2023-05-05T07:00:15.072Z,25.6
2023-05-05T07:05:36.417Z,25.5
2023-05-05T07:10:58.097Z,26
2023-05-05T07:16:32.687Z,26.6
2023-05-05T07:22:09.447Z,27.1
2023-05-05T07:27:31.275Z,27.4
2023-05-05T07:32:56.902Z,28.3
2023-05-05T07:38:33.175Z,29.4
2023-05-05T07:44:12.477Z,30.9
2023-05-05T07:49:50.096Z,31.9
2023-05-05T07:55:44.476Z,33
2023-05-05T08:01:20.672Z,33.9
2023-05-05T08:06:45.955Z,34.8
2023-05-05T08:12:22.426Z,35.6
2023-05-05T08:18:00.376Z,36.5
2023-05-05T08:23:49.125Z,37.4
2023-05-05T08:29:26.239Z,38.3
2023-05-05T08:35:02.861Z,38.6
2023-05-05T08:40:40.107Z,38.3
2023-05-05T08:46:35.448Z,38.9
2023-05-05T08:52:12.543Z,38.3
2023-05-05T08:57:35.032Z,29.3
2023-05-05T09:03:12.244Z,27
2023-05-05T09:08:33.472Z,25.8
2023-05-05T09:13:39.449Z,26.6
2023-05-05T09:18:44.978Z,27.1
2023-05-05T09:24:08.337Z,27.5
2023-05-05T09:29:30.025Z,30.1
2023-05-05T09:34:51.325Z,32
2023-05-05T09:40:13.653Z,33.4
2023-05-05T09:45:49.772Z,34.8
2023-05-05T09:51:43.190Z,36.6
2023-05-05T09:57:04.744Z,37.3
2023-05-05T10:02:26.145Z,36.8
2023-05-05T10:07:47.976Z,38
2023-05-05T10:13:25.009Z,38.6
2023-05-05T10:18:57.348Z,38.4
2023-05-05T10:24:19.020Z,40.3
2023-05-05T10:29:41.216Z,41.3
2023-05-05T10:35:56.059Z,42.1
2023-05-05T10:41:17.444Z,42.4
2023-05-05T10:46:38.726Z,41.6
2023-05-05T10:52:14.278Z,42.3
2023-05-05T10:57:51.307Z,42.2
2023-05-05T11:03:31.364Z,43.3
2023-05-05T11:08:37.971Z,44.1
2023-05-05T11:14:17.380Z,44.6
2023-05-05T11:19:39.136Z,44.9
2023-05-05T11:25:00.815Z,44.9
2023-05-05T11:30:24.750Z,45.7
2023-05-05T11:35:48.046Z,46.2
2023-05-05T11:41:11.780Z,46.3
2023-05-05T11:46:54.491Z,45.7
2023-05-05T11:52:16.391Z,46.8
2023-05-05T11:57:55.679Z,47.2
2023-05-05T12:03:02.560Z,47.4
2023-05-05T12:08:43.607Z,47.8
2023-05-05T12:14:22.133Z,47.9
2023-05-05T12:19:29.104Z,48.2
2023-05-05T12:25:21.059Z,48.4
2023-05-05T12:30:59.584Z,48.3
2023-05-05T12:36:21.717Z,48.6
2023-05-05T12:41:43.033Z,48.1
2023-05-05T12:47:05.566Z,48.6
2023-05-05T12:52:45.057Z,48.9
2023-05-05T12:58:37.478Z,48.2
2023-05-05T13:04:01.992Z,48.6
2023-05-05T13:09:54.715Z,49
2023-05-05T13:15:49.266Z,49.2
2023-05-05T13:21:42.493Z,49.2
2023-05-05T13:27:59.338Z,49.1
2023-05-05T13:33:38.352Z,49.1
2023-05-05T13:39:30.833Z,49.1
2023-05-05T13:45:08.876Z,48.9
2023-05-05T13:50:59.814Z,48.8
2023-05-05T13:56:54.398Z,48.8
2023-05-05T14:02:49.209Z,48.9
2023-05-05T14:08:45.114Z,48.7
2023-05-05T14:14:38.760Z,48.4
2023-05-05T14:20:16.299Z,48
2023-05-05T14:26:10.418Z,47.6
2023-05-05T14:32:04.091Z,47.3
2023-05-05T14:37:58.440Z,46.9
2023-05-05T14:43:51.569Z,46.3
2023-05-05T14:49:45.710Z,45.9
2023-05-05T14:55:49.999Z,45.4
2023-05-05T15:01:43.991Z,44.9
2023-05-05T15:07:40.792Z,44.6
2023-05-05T15:13:34.654Z,44.3
2023-05-05T15:19:13.249Z,44
2023-05-05T15:24:52.288Z,43.4
2023-05-05T15:30:30.319Z,41.4
2023-05-05T15:36:24.162Z,39.3
2023-05-05T15:42:19.160Z,37.9
2023-05-05T15:48:13.738Z,36.9
2023-05-05T15:53:55.936Z,36.2
2023-05-05T15:59:51.942Z,35.6
2023-05-05T16:05:32.395Z,35.3
2023-05-05T16:11:27.710Z,34.9
2023-05-05T16:17:24.298Z,34.6
2023-05-05T16:23:03.977Z,34.3
2023-05-05T16:28:44.168Z,34.1
2023-05-05T16:34:25.455Z,33.9
2023-05-05T16:40:06.290Z,33.7
2023-05-05T16:46:02.143Z,33.4
2023-05-05T16:51:58.524Z,33.2
2023-05-05T16:57:22.917Z,33
2023-05-05T17:02:48.400Z,32.1
2023-05-05T17:08:29.798Z,31.6
2023-05-05T17:14:11.487Z,31.2
2023-05-05T17:20:08.351Z,30.9
2023-05-05T17:26:08.597Z,30.8
2023-05-05T17:32:06.014Z,30.6
2023-05-05T17:38:05.081Z,30.1
2023-05-05T17:44:03.058Z,29
2023-05-05T17:50:01.970Z,28.1
2023-05-05T17:55:59.901Z,27.6
2023-05-05T18:01:59.327Z,27.3
2023-05-05T18:07:59.025Z,27.1
2023-05-05T18:13:57.563Z,26.8
2023-05-05T18:19:56.333Z,26.7
2023-05-05T18:26:08.157Z,26.3
2023-05-05T18:32:05.521Z,25.9
2023-05-05T18:38:06.293Z,25.8
2023-05-05T18:44:03.073Z,25.7
2023-05-05T18:50:04.684Z,25.6
2023-05-05T18:56:02.489Z,25.4
2023-05-05T19:02:01.633Z,24.9
2023-05-05T19:08:38.300Z,24.4
2023-05-05T19:14:37.066Z,24.1
2023-05-05T19:20:36.087Z,23.9
2023-05-05T19:26:36.358Z,23.7
2023-05-05T19:32:36.643Z,23.6
2023-05-05T19:38:35.572Z,23.4
2023-05-05T19:44:32.816Z,23.4
2023-05-05T19:50:32.073Z,23.4
2023-05-05T19:56:30.684Z,23.3
2023-05-05T20:02:28.956Z,23.3
2023-05-05T20:08:27.987Z,23.2
2023-05-05T20:14:26.620Z,23.1
2023-05-05T20:20:25.203Z,23.1
2023-05-05T20:26:24.625Z,23.1
2023-05-05T20:32:23.103Z,23.1
2023-05-05T20:38:20.820Z,23.1
2023-05-05T20:44:19.014Z,23.1
2023-05-05T20:50:22.216Z,23
2023-05-05T20:56:21.360Z,22.9
2023-05-05T21:02:21.119Z,22.9
2023-05-05T21:08:19.556Z,22.9
2023-05-05T21:14:16.636Z,22.9
2023-05-05T21:20:15.553Z,22.9
2023-05-05T21:26:13.918Z,22.9
2023-05-05T21:32:29.604Z,22.9
2023-05-05T21:38:26.971Z,22.9
2023-05-05T21:44:25.504Z,22.9
2023-05-05T21:50:21.967Z,22.9
2023-05-05T21:56:18.958Z,22.9
2023-05-05T22:02:14.345Z,22.9
2023-05-05T22:07:54.422Z,22.9
2023-05-05T22:13:49.637Z,22.9
2023-05-05T22:19:50.799Z,22.9
2023-05-05T22:25:45.315Z,22.9
2023-05-05T22:31:41.876Z,22.9
2023-05-05T22:37:35.615Z,22.9
2023-05-05T22:43:14.235Z,22.9
2023-05-05T22:48:53.345Z,22.9
2023-05-05T22:54:47.019Z,22.9
2023-05-05T23:00:40.890Z,22.9
2023-05-05T23:06:35.349Z,22.9
2023-05-05T23:12:28.326Z,22.9
2023-05-05T23:18:20.854Z,22.9
2023-05-05T23:24:22.155Z,22.9
2023-05-05T23:29:58.829Z,22.9
2023-05-05T23:35:35.316Z,22.9
2023-05-05T23:41:12.474Z,22.9
2023-05-05T23:46:49.466Z,22.9
2023-05-05T23:52:25.204Z,22.9
2023-05-05T23:58:02.268Z,22.9
